sensor_id;sensor_type;location;lat;lon;timestamp;pressure;altitude;pressure_sealevel;temperature;humidity
59274;BME280;45044;41.572;24.730;2022-12-07T00:01:21;91368.94;;;-0.04;100.00
59274;BME280;45044;41.572;24.730;2022-12-07T00:03:51;91383.53;;;-0.08;100.00
59274;BME280;45044;41.572;24.730;2022-12-07T00:06:20;91372.72;;;-0.10;100.00
59274;BME280;45044;41.572;24.730;2022-12-07T00:08:47;91366.22;;;-0.26;100.00
59274;BME280;45044;41.572;24.730;2022-12-07T00:11:22;91364.22;;;-0.29;100.00
59274;BME280;45044;41.572;24.730;2022-12-07T00:13:54;91366.50;;;-0.27;100.00
59274;BME280;45044;41.572;24.730;2022-12-07T00:16:24;91366.19;;;-0.34;100.00
59274;BME280;45044;41.572;24.730;2022-12-07T00:18:51;91363.75;;;-0.31;100.00
59274;BME280;45044;41.572;24.730;2022-12-07T00:21:21;91367.41;;;-0.41;100.00
59274;BME280;45044;41.572;24.730;2022-12-07T00:23:49;91361.31;;;-0.45;100.00
59274;BME280;45044;41.572;24.730;2022-12-07T00:28:47;91371.06;;;-0.24;100.00
59274;BME280;45044;41.572;24.730;2022-12-07T00:31:16;91373.50;;;-0.19;100.00
59274;BME280;45044;41.572;24.730;2022-12-07T00:33:45;91371.78;;;-0.59;100.00
59274;BME280;45044;41.572;24.730;2022-12-07T00:36:14;91368.59;;;-0.65;100.00
59274;BME280;45044;41.572;24.730;2022-12-07T00:38:42;91354.94;;;-0.56;100.00
59274;BME280;45044;41.572;24.730;2022-12-07T00:41:14;91355.53;;;-0.68;100.00
59274;BME280;45044;41.572;24.730;2022-12-07T00:43:42;91352.78;;;-0.72;100.00
59274;BME280;45044;41.572;24.730;2022-12-07T00:46:09;91356.25;;;-0.86;100.00
59274;BME280;45044;41.572;24.730;2022-12-07T00:48:36;91363.09;;;-0.72;100.00
59274;BME280;45044;41.572;24.730;2022-12-07T00:51:04;91363.13;;;-0.54;100.00
59274;BME280;45044;41.572;24.730;2022-12-07T00:53:34;91365.41;;;-0.53;100.00
59274;BME280;45044;41.572;24.730;2022-12-07T00:56:15;91368.47;;;-0.42;100.00
59274;BME280;45044;41.572;24.730;2022-12-07T00:58:43;91362.56;;;-0.42;100.00
59274;BME280;45044;41.572;24.730;2022-12-07T01:01:10;91361.78;;;-0.43;100.00
59274;BME280;45044;41.572;24.730;2022-12-07T01:03:38;91347.47;;;-0.49;100.00
59274;BME280;45044;41.572;24.730;2022-12-07T01:06:05;91354.66;;;-0.46;100.00
59274;BME280;45044;41.572;24.730;2022-12-07T01:08:33;91353.13;;;-0.29;100.00
59274;BME280;45044;41.572;24.730;2022-12-07T01:11:05;91351.00;;;-0.27;100.00
59274;BME280;45044;41.572;24.730;2022-12-07T01:13:34;91345.34;;;-0.47;100.00
59274;BME280;45044;41.572;24.730;2022-12-07T01:16:02;91345.38;;;-0.38;100.00
59274;BME280;45044;41.572;24.730;2022-12-07T01:18:32;91344.16;;;-0.41;100.00
59274;BME280;45044;41.572;24.730;2022-12-07T01:21:14;91350.66;;;-0.70;100.00
59274;BME280;45044;41.572;24.730;2022-12-07T01:23:42;91351.91;;;-0.58;100.00
59274;BME280;45044;41.572;24.730;2022-12-07T01:26:15;91346.13;;;-0.55;100.00
59274;BME280;45044;41.572;24.730;2022-12-07T01:28:42;91333.22;;;-0.64;100.00
59274;BME280;45044;41.572;24.730;2022-12-07T01:31:12;91340.19;;;-0.65;100.00
59274;BME280;45044;41.572;24.730;2022-12-07T01:33:43;91338.69;;;-0.57;100.00
59274;BME280;45044;41.572;24.730;2022-12-07T01:36:16;91341.56;;;-0.50;100.00
59274;BME280;45044;41.572;24.730;2022-12-07T01:38:44;91335.19;;;-0.43;100.00
59274;BME280;45044;41.572;24.730;2022-12-07T01:41:12;91331.56;;;-0.42;100.00
59274;BME280;45044;41.572;24.730;2022-12-07T01:46:51;91323.66;;;-0.64;100.00
59274;BME280;45044;41.572;24.730;2022-12-07T01:49:26;91320.00;;;-0.63;100.00
59274;BME280;45044;41.572;24.730;2022-12-07T01:52:00;91319.22;;;-0.63;100.00
59274;BME280;45044;41.572;24.730;2022-12-07T01:54:29;91309.03;;;-0.77;100.00
59274;BME280;45044;41.572;24.730;2022-12-07T01:56:56;91307.97;;;-0.76;100.00
59274;BME280;45044;41.572;24.730;2022-12-07T01:59:25;91301.75;;;-0.75;100.00
59274;BME280;45044;41.572;24.730;2022-12-07T02:01:54;91308.28;;;-0.78;100.00
59274;BME280;45044;41.572;24.730;2022-12-07T02:04:22;91302.22;;;-0.64;100.00
59274;BME280;45044;41.572;24.730;2022-12-07T02:06:50;91302.22;;;-0.64;100.00
59274;BME280;45044;41.572;24.730;2022-12-07T02:09:18;91297.81;;;-0.64;100.00
59274;BME280;45044;41.572;24.730;2022-12-07T02:11:44;91288.09;;;-0.67;100.00
59274;BME280;45044;41.572;24.730;2022-12-07T02:14:12;91294.00;;;-0.57;100.00
59274;BME280;45044;41.572;24.730;2022-12-07T02:25:22;91304.16;;;-0.88;100.00
59274;BME280;45044;41.572;24.730;2022-12-07T02:28:35;91303.06;;;-1.04;100.00
59274;BME280;45044;41.572;24.730;2022-12-07T02:31:11;91298.84;;;-0.91;100.00
59274;BME280;45044;41.572;24.730;2022-12-07T02:33:48;91305.38;;;-0.76;100.00
59274;BME280;45044;41.572;24.730;2022-12-07T02:36:27;91302.22;;;-0.73;100.00
59274;BME280;45044;41.572;24.730;2022-12-07T02:42:26;91292.94;;;-0.74;100.00
59274;BME280;45044;41.572;24.730;2022-12-07T02:44:54;91303.25;;;-0.74;100.00
59274;BME280;45044;41.572;24.730;2022-12-07T02:47:22;91302.22;;;-0.82;100.00
59274;BME280;45044;41.572;24.730;2022-12-07T02:49:51;91303.72;;;-0.63;100.00
59274;BME280;45044;41.572;24.730;2022-12-07T02:52:18;91293.09;;;-0.62;100.00
59274;BME280;45044;41.572;24.730;2022-12-07T02:54:45;91292.94;;;-0.65;100.00
59274;BME280;45044;41.572;24.730;2022-12-07T02:57:42;91298.25;;;-0.79;100.00
59274;BME280;45044;41.572;24.730;2022-12-07T03:00:17;91289.31;;;-0.64;100.00
59274;BME280;45044;41.572;24.730;2022-12-07T03:03:00;91297.66;;;-0.67;100.00
59274;BME280;45044;41.572;24.730;2022-12-07T03:08:13;91297.00;;;-0.91;100.00
59274;BME280;45044;41.572;24.730;2022-12-07T03:11:05;91303.72;;;-0.81;100.00
59274;BME280;45044;41.572;24.730;2022-12-07T03:16:22;91302.22;;;-0.64;100.00
59274;BME280;45044;41.572;24.730;2022-12-07T03:19:06;91301.91;;;-0.80;100.00
59274;BME280;45044;41.572;24.730;2022-12-07T03:21:38;91302.69;;;-0.71;100.00
59274;BME280;45044;41.572;24.730;2022-12-07T03:24:15;91311.16;;;-0.79;100.00
59274;BME280;45044;41.572;24.730;2022-12-07T03:26:50;91307.94;;;-0.85;100.00
59274;BME280;45044;41.572;24.730;2022-12-07T03:29:23;91298.72;;;-0.77;100.00
59274;BME280;45044;41.572;24.730;2022-12-07T03:31:59;91299.63;;;-0.73;100.00
59274;BME280;45044;41.572;24.730;2022-12-07T03:34:56;91293.84;;;-0.70;100.00
59274;BME280;45044;41.572;24.730;2022-12-07T03:37:35;91299.63;;;-0.55;100.00
59274;BME280;45044;41.572;24.730;2022-12-07T03:40:33;91289.47;;;-0.52;100.00
59274;BME280;45044;41.572;24.730;2022-12-07T03:43:02;91300.88;;;-0.44;100.00
59274;BME280;45044;41.572;24.730;2022-12-07T03:45:39;91270.00;;;-0.49;100.00
59274;BME280;45044;41.572;24.730;2022-12-07T03:48:24;91291.72;;;-0.32;100.00
59274;BME280;45044;41.572;24.730;2022-12-07T03:51:16;91294.00;;;-0.49;100.00
59274;BME280;45044;41.572;24.730;2022-12-07T03:54:02;91293.69;;;-0.82;100.00
59274;BME280;45044;41.572;24.730;2022-12-07T03:56:34;91301.16;;;-0.54;100.00
59274;BME280;45044;41.572;24.730;2022-12-07T03:59:02;91301.16;;;-0.37;100.00
59274;BME280;45044;41.572;24.730;2022-12-07T04:01:28;91301.59;;;-0.34;100.00
59274;BME280;45044;41.572;24.730;2022-12-07T04:03:55;91298.72;;;-0.59;100.00
59274;BME280;45044;41.572;24.730;2022-12-07T04:06:22;91301.44;;;-0.47;100.00
59274;BME280;45044;41.572;24.730;2022-12-07T04:08:49;91301.16;;;-0.37;100.00
59274;BME280;45044;41.572;24.730;2022-12-07T04:11:15;91302.66;;;-0.35;100.00
59274;BME280;45044;41.572;24.730;2022-12-07T04:13:42;91291.72;;;-0.50;100.00
59274;BME280;45044;41.572;24.730;2022-12-07T04:16:27;91296.13;;;-0.59;100.00
59274;BME280;45044;41.572;24.730;2022-12-07T04:18:54;91294.00;;;-0.57;100.00
59274;BME280;45044;41.572;24.730;2022-12-07T04:21:21;91290.66;;;-0.49;100.00
59274;BME280;45044;41.572;24.730;2022-12-07T04:23:47;91289.47;;;-0.43;100.00
59274;BME280;45044;41.572;24.730;2022-12-07T04:26:14;91263.31;;;-0.59;100.00
59274;BME280;45044;41.572;24.730;2022-12-07T04:28:41;91287.03;;;-0.39;100.00
59274;BME280;45044;41.572;24.730;2022-12-07T04:31:08;91277.16;;;-0.46;100.00
59274;BME280;45044;41.572;24.730;2022-12-07T04:33:35;91285.06;;;-0.42;100.00
59274;BME280;45044;41.572;24.730;2022-12-07T04:36:03;91277.91;;;-0.37;100.00
59274;BME280;45044;41.572;24.730;2022-12-07T04:38:29;91287.19;;;-0.53;100.00
59274;BME280;45044;41.572;24.730;2022-12-07T04:40:56;91259.53;;;-0.70;100.00
59274;BME280;45044;41.572;24.730;2022-12-07T04:43:23;91282.47;;;-0.51;100.00
59274;BME280;45044;41.572;24.730;2022-12-07T04:45:50;91283.22;;;-0.51;100.00
59274;BME280;45044;41.572;24.730;2022-12-07T04:48:17;91283.69;;;-0.49;100.00
59274;BME280;45044;41.572;24.730;2022-12-07T04:50:44;91280.19;;;-0.44;100.00
59274;BME280;45044;41.572;24.730;2022-12-07T04:53:12;91278.97;;;-0.38;100.00
59274;BME280;45044;41.572;24.730;2022-12-07T04:55:38;91287.16;;;-0.35;100.00
59274;BME280;45044;41.572;24.730;2022-12-07T04:58:05;91280.19;;;-0.35;100.00
59274;BME280;45044;41.572;24.730;2022-12-07T05:00:32;91271.84;;;-0.50;100.00
59274;BME280;45044;41.572;24.730;2022-12-07T05:02:59;91271.06;;;-0.77;100.00
59274;BME280;45044;41.572;24.730;2022-12-07T05:05:26;91281.56;;;-0.55;100.00
59274;BME280;45044;41.572;24.730;2022-12-07T05:07:53;91282.75;;;-0.53;100.00
59274;BME280;45044;41.572;24.730;2022-12-07T05:10:20;91286.09;;;-0.52;100.00
59274;BME280;45044;41.572;24.730;2022-12-07T05:12:47;91276.41;;;-0.55;100.00
59274;BME280;45044;41.572;24.730;2022-12-07T05:15:15;91282.47;;;-0.51;100.00
59274;BME280;45044;41.572;24.730;2022-12-07T05:17:44;91289.63;;;-0.66;100.00
59274;BME280;45044;41.572;24.730;2022-12-07T05:20:11;91290.38;;;-0.56;100.00
59274;BME280;45044;41.572;24.730;2022-12-07T05:22:38;91294.47;;;-0.55;100.00
59274;BME280;45044;41.572;24.730;2022-12-07T05:25:04;91285.97;;;-0.56;100.00
59274;BME280;45044;41.572;24.730;2022-12-07T05:27:31;91286.72;;;-0.46;100.00
59274;BME280;45044;41.572;24.730;2022-12-07T05:29:58;91289.63;;;-0.48;100.00
59274;BME280;45044;41.572;24.730;2022-12-07T05:32:25;91253.00;;;-0.68;100.00
59274;BME280;45044;41.572;24.730;2022-12-07T05:34:52;91294.16;;;-0.45;100.00
59274;BME280;45044;41.572;24.730;2022-12-07T05:37:21;91292.66;;;-0.55;100.00
59274;BME280;45044;41.572;24.730;2022-12-07T05:39:47;91293.84;;;-0.52;100.00
59274;BME280;45044;41.572;24.730;2022-12-07T05:42:14;91295.97;;;-0.54;100.00
59274;BME280;45044;41.572;24.730;2022-12-07T05:44:44;91298.72;;;-0.42;100.00
59274;BME280;45044;41.572;24.730;2022-12-07T05:47:13;91300.41;;;-0.37;100.00
59274;BME280;45044;41.572;24.730;2022-12-07T05:49:40;91296.75;;;-0.36;100.00
59274;BME280;45044;41.572;24.730;2022-12-07T05:52:07;91304.06;;;-0.29;100.00
59274;BME280;45044;41.572;24.730;2022-12-07T05:54:34;91297.34;;;-0.21;100.00
59274;BME280;45044;41.572;24.730;2022-12-07T05:57:01;91307.69;;;-0.30;100.00
59274;BME280;45044;41.572;24.730;2022-12-07T05:59:27;91307.66;;;-0.13;100.00
59274;BME280;45044;41.572;24.730;2022-12-07T06:01:58;91305.22;;;-0.09;100.00
59274;BME280;45044;41.572;24.730;2022-12-07T06:04:28;91303.25;;;-0.03;100.00
59274;BME280;45044;41.572;24.730;2022-12-07T06:06:55;91314.03;;;0.08;100.00
59274;BME280;45044;41.572;24.730;2022-12-07T06:09:23;91312.06;;;0.05;100.00
59274;BME280;45044;41.572;24.730;2022-12-07T06:11:51;91305.25;;;0.00;100.00
59274;BME280;45044;41.572;24.730;2022-12-07T06:14:36;91308.56;;;0.01;100.00
59274;BME280;45044;41.572;24.730;2022-12-07T06:17:03;91288.31;;;0.11;100.00
59274;BME280;45044;41.572;24.730;2022-12-07T06:19:30;91305.81;;;-0.03;100.00
59274;BME280;45044;41.572;24.730;2022-12-07T06:21:57;91303.69;;;-0.01;100.00
59274;BME280;45044;41.572;24.730;2022-12-07T06:24:25;91300.19;;;-0.05;100.00
59274;BME280;45044;41.572;24.730;2022-12-07T06:26:51;91299.59;;;-0.02;100.00
59274;BME280;45044;41.572;24.730;2022-12-07T06:29:18;91304.19;;;-0.34;100.00
59274;BME280;45044;41.572;24.730;2022-12-07T06:31:45;91301.56;;;0.10;100.00
59274;BME280;45044;41.572;24.730;2022-12-07T06:34:15;91306.50;;;0.42;100.00
59274;BME280;45044;41.572;24.730;2022-12-07T06:36:42;91295.41;;;0.71;100.00
59274;BME280;45044;41.572;24.730;2022-12-07T06:39:10;91299.38;;;1.29;100.00
59274;BME280;45044;41.572;24.730;2022-12-07T06:41:37;91291.09;;;1.79;100.00
59274;BME280;45044;41.572;24.730;2022-12-07T06:44:05;91300.78;;;2.50;100.00
59274;BME280;45044;41.572;24.730;2022-12-07T06:46:32;91292.78;;;3.18;100.00
59274;BME280;45044;41.572;24.730;2022-12-07T06:48:59;91294.59;;;4.12;100.00
59274;BME280;45044;41.572;24.730;2022-12-07T06:51:26;91298.25;;;4.88;100.00
59274;BME280;45044;41.572;24.730;2022-12-07T06:53:52;91294.88;;;5.76;100.00
59274;BME280;45044;41.572;24.730;2022-12-07T06:56:19;91293.06;;;6.00;100.00
59274;BME280;45044;41.572;24.730;2022-12-07T06:58:46;91292.66;;;6.38;100.00
59274;BME280;45044;41.572;24.730;2022-12-07T07:01:14;91295.41;;;5.85;100.00
59274;BME280;45044;41.572;24.730;2022-12-07T07:03:42;91290.38;;;5.96;100.00
59274;BME280;45044;41.572;24.730;2022-12-07T07:06:09;91287.50;;;6.41;100.00
59274;BME280;45044;41.572;24.730;2022-12-07T07:08:37;91293.09;;;7.14;100.00
59274;BME280;45044;41.572;24.730;2022-12-07T07:11:05;91285.78;;;7.85;100.00
59274;BME280;45044;41.572;24.730;2022-12-07T07:13:33;91292.44;;;8.13;100.00
59274;BME280;45044;41.572;24.730;2022-12-07T07:15:59;91288.41;;;8.99;94.59
59274;BME280;45044;41.572;24.730;2022-12-07T07:18:26;91291.66;;;7.47;100.00
59274;BME280;45044;41.572;24.730;2022-12-07T07:20:54;91297.84;;;7.62;100.00
59274;BME280;45044;41.572;24.730;2022-12-07T07:23:21;91295.94;;;8.24;100.00
59274;BME280;45044;41.572;24.730;2022-12-07T07:25:48;91290.53;;;7.45;100.00
59274;BME280;45044;41.572;24.730;2022-12-07T07:28:15;91294.69;;;7.22;100.00
59274;BME280;45044;41.572;24.730;2022-12-07T07:30:42;91286.28;;;6.58;100.00
59274;BME280;45044;41.572;24.730;2022-12-07T07:33:10;91287.13;;;5.80;100.00
59274;BME280;45044;41.572;24.730;2022-12-07T07:35:37;91272.19;;;5.41;100.00
59274;BME280;45044;41.572;24.730;2022-12-07T07:38:04;91277.81;;;4.26;100.00
59274;BME280;45044;41.572;24.730;2022-12-07T07:40:31;91267.59;;;3.88;100.00
59274;BME280;45044;41.572;24.730;2022-12-07T07:42:58;91290.75;;;4.38;100.00
59274;BME280;45044;41.572;24.730;2022-12-07T07:45:26;91299.19;;;4.19;100.00
59274;BME280;45044;41.572;24.730;2022-12-07T07:47:53;91299.75;;;4.41;100.00
59274;BME280;45044;41.572;24.730;2022-12-07T07:50:20;91286.22;;;4.35;100.00
59274;BME280;45044;41.572;24.730;2022-12-07T07:52:48;91281.63;;;4.00;100.00
59274;BME280;45044;41.572;24.730;2022-12-07T07:55:15;91293.56;;;4.17;100.00
59274;BME280;45044;41.572;24.730;2022-12-07T07:57:42;91272.66;;;4.13;100.00
59274;BME280;45044;41.572;24.730;2022-12-07T08:00:15;91289.66;;;3.94;100.00
59274;BME280;45044;41.572;24.730;2022-12-07T08:02:43;91296.81;;;3.98;100.00
59274;BME280;45044;41.572;24.730;2022-12-07T08:05:11;91295.81;;;4.02;100.00
59274;BME280;45044;41.572;24.730;2022-12-07T08:07:38;91293.59;;;3.88;100.00
59274;BME280;45044;41.572;24.730;2022-12-07T08:10:07;91300.34;;;3.77;100.00
59274;BME280;45044;41.572;24.730;2022-12-07T08:12:38;91298.44;;;3.61;100.00
59274;BME280;45044;41.572;24.730;2022-12-07T08:15:27;91291.28;;;3.70;100.00
59274;BME280;45044;41.572;24.730;2022-12-07T08:17:54;91296.56;;;3.74;100.00
59274;BME280;45044;41.572;24.730;2022-12-07T08:20:21;91293.34;;;3.65;100.00
59274;BME280;45044;41.572;24.730;2022-12-07T08:22:48;91295.72;;;3.99;100.00
59274;BME280;45044;41.572;24.730;2022-12-07T08:25:15;91295.84;;;3.90;100.00
59274;BME280;45044;41.572;24.730;2022-12-07T08:27:42;91289.28;;;4.09;100.00
59274;BME280;45044;41.572;24.730;2022-12-07T08:30:09;91292.97;;;4.07;100.00
59274;BME280;45044;41.572;24.730;2022-12-07T08:32:36;91289.22;;;4.21;100.00
59274;BME280;45044;41.572;24.730;2022-12-07T08:35:03;91292.38;;;4.43;100.00
59274;BME280;45044;41.572;24.730;2022-12-07T08:37:31;91294.34;;;5.31;100.00
59274;BME280;45044;41.572;24.730;2022-12-07T08:39:58;91295.66;;;5.60;100.00
59274;BME280;45044;41.572;24.730;2022-12-07T08:42:25;91286.06;;;6.24;100.00
59274;BME280;45044;41.572;24.730;2022-12-07T08:44:56;91281.69;;;5.33;100.00
59274;BME280;45044;41.572;24.730;2022-12-07T08:47:24;91277.69;;;5.95;100.00
59274;BME280;45044;41.572;24.730;2022-12-07T08:49:52;91286.22;;;4.67;100.00
59274;BME280;45044;41.572;24.730;2022-12-07T08:52:19;91273.09;;;6.08;100.00
59274;BME280;45044;41.572;24.730;2022-12-07T08:54:46;91281.66;;;6.99;100.00
59274;BME280;45044;41.572;24.730;2022-12-07T08:57:13;91266.22;;;7.75;100.00
59274;BME280;45044;41.572;24.730;2022-12-07T08:59:40;91271.53;;;6.70;100.00
59274;BME280;45044;41.572;24.730;2022-12-07T09:02:07;91267.88;;;7.87;100.00
59274;BME280;45044;41.572;24.730;2022-12-07T09:04:34;91265.81;;;7.42;100.00
59274;BME280;45044;41.572;24.730;2022-12-07T09:07:00;91277.19;;;9.06;100.00
59274;BME280;45044;41.572;24.730;2022-12-07T09:09:27;91265.38;;;9.27;100.00
59274;BME280;45044;41.572;24.730;2022-12-07T09:11:54;91258.94;;;9.95;100.00
59274;BME280;45044;41.572;24.730;2022-12-07T09:14:21;91253.09;;;11.04;98.21
59274;BME280;45044;41.572;24.730;2022-12-07T09:16:48;91270.91;;;9.92;100.00
59274;BME280;45044;41.572;24.730;2022-12-07T09:19:14;91236.41;;;9.87;100.00
59274;BME280;45044;41.572;24.730;2022-12-07T09:21:41;91247.31;;;9.18;100.00
59274;BME280;45044;41.572;24.730;2022-12-07T09:24:08;91249.50;;;9.79;100.00
59274;BME280;45044;41.572;24.730;2022-12-07T09:26:35;91246.66;;;10.32;100.00
59274;BME280;45044;41.572;24.730;2022-12-07T09:29:02;91237.31;;;11.15;99.06
59274;BME280;45044;41.572;24.730;2022-12-07T09:31:29;91230.38;;;11.80;91.13
59274;BME280;45044;41.572;24.730;2022-12-07T09:33:58;91240.97;;;12.51;88.96
59274;BME280;45044;41.572;24.730;2022-12-07T09:36:26;91224.28;;;12.69;89.57
59274;BME280;45044;41.572;24.730;2022-12-07T09:38:54;91236.81;;;13.46;71.78
59274;BME280;45044;41.572;24.730;2022-12-07T09:41:21;91237.84;;;13.59;72.91
59274;BME280;45044;41.572;24.730;2022-12-07T09:43:50;91216.69;;;14.81;66.07
59274;BME280;45044;41.572;24.730;2022-12-07T09:46:19;91222.34;;;15.07;59.91
59274;BME280;45044;41.572;24.730;2022-12-07T09:48:47;91225.09;;;15.24;56.88
59274;BME280;45044;41.572;24.730;2022-12-07T09:53:51;91226.50;;;15.52;54.77
59274;BME280;45044;41.572;24.730;2022-12-07T09:56:19;91211.19;;;16.58;53.25
59274;BME280;45044;41.572;24.730;2022-12-07T09:58:46;91213.19;;;14.05;58.10
59274;BME280;45044;41.572;24.730;2022-12-07T10:01:15;91215.78;;;14.08;61.22
59274;BME280;45044;41.572;24.730;2022-12-07T10:03:51;91211.38;;;14.81;60.25
59274;BME280;45044;41.572;24.730;2022-12-07T10:06:18;91203.06;;;15.91;56.17
59274;BME280;45044;41.572;24.730;2022-12-07T10:08:45;91213.19;;;14.32;57.08
59274;BME280;45044;41.572;24.730;2022-12-07T10:11:13;91204.41;;;14.11;57.95
59274;BME280;45044;41.572;24.730;2022-12-07T10:13:47;91203.19;;;15.43;58.00
59274;BME280;45044;41.572;24.730;2022-12-07T10:18:52;91211.06;;;15.03;54.24
59274;BME280;45044;41.572;24.730;2022-12-07T10:21:24;91203.38;;;14.88;55.00
59274;BME280;45044;41.572;24.730;2022-12-07T10:26:46;91191.19;;;15.39;54.85
59274;BME280;45044;41.572;24.730;2022-12-07T10:31:55;91187.53;;;17.60;50.56
59274;BME280;45044;41.572;24.730;2022-12-07T10:34:35;91176.50;;;14.62;55.27
59274;BME280;45044;41.572;24.730;2022-12-07T10:42:30;91173.84;;;15.34;58.05
59274;BME280;45044;41.572;24.730;2022-12-07T10:47:36;91181.03;;;15.54;55.54
59274;BME280;45044;41.572;24.730;2022-12-07T10:53:14;91174.41;;;15.45;53.74
59274;BME280;45044;41.572;24.730;2022-12-07T10:56:03;91171.38;;;14.51;55.65
59274;BME280;45044;41.572;24.730;2022-12-07T11:01:35;91170.84;;;13.03;64.08
59274;BME280;45044;41.572;24.730;2022-12-07T11:04:40;91170.72;;;12.79;63.07
59274;BME280;45044;41.572;24.730;2022-12-07T11:18:53;91147.31;;;11.64;67.99
59274;BME280;45044;41.572;24.730;2022-12-07T11:21:36;91147.88;;;11.11;74.31
59274;BME280;45044;41.572;24.730;2022-12-07T11:24:17;91143.84;;;11.78;73.36
59274;BME280;45044;41.572;24.730;2022-12-07T11:38:23;91117.41;;;13.30;58.15
59274;BME280;45044;41.572;24.730;2022-12-07T11:41:00;91111.19;;;12.75;61.43
59274;BME280;45044;41.572;24.730;2022-12-07T11:46:40;91105.41;;;12.45;64.68
59274;BME280;45044;41.572;24.730;2022-12-07T11:49:27;91108.16;;;12.76;64.20
59274;BME280;45044;41.572;24.730;2022-12-07T11:51:59;91107.81;;;12.74;62.88
59274;BME280;45044;41.572;24.730;2022-12-07T11:54:32;91104.25;;;12.53;59.77
59274;BME280;45044;41.572;24.730;2022-12-07T11:57:04;91107.16;;;12.17;60.98
59274;BME280;45044;41.572;24.730;2022-12-07T11:59:45;91100.72;;;12.21;66.13
59274;BME280;45044;41.572;24.730;2022-12-07T12:02:24;91088.97;;;13.46;55.70
59274;BME280;45044;41.572;24.730;2022-12-07T12:04:58;91092.44;;;14.25;57.12
59274;BME280;45044;41.572;24.730;2022-12-07T12:07:28;91099.69;;;14.69;53.19
59274;BME280;45044;41.572;24.730;2022-12-07T12:10:26;91107.97;;;13.33;52.51
59274;BME280;45044;41.572;24.730;2022-12-07T12:13:08;91109.59;;;12.42;56.12
59274;BME280;45044;41.572;24.730;2022-12-07T12:21:30;91084.44;;;11.77;64.83
59274;BME280;45044;41.572;24.730;2022-12-07T12:26:28;91077.09;;;12.03;64.17
59274;BME280;45044;41.572;24.730;2022-12-07T12:28:58;91071.75;;;11.57;65.63
59274;BME280;45044;41.572;24.730;2022-12-07T12:31:33;91089.81;;;11.59;65.47
59274;BME280;45044;41.572;24.730;2022-12-07T12:36:56;91072.84;;;10.70;75.75
59274;BME280;45044;41.572;24.730;2022-12-07T12:39:23;91067.63;;;10.23;79.50
59274;BME280;45044;41.572;24.730;2022-12-07T12:41:53;91080.00;;;9.97;82.76
59274;BME280;45044;41.572;24.730;2022-12-07T12:46:54;91066.88;;;10.11;86.92
59274;BME280;45044;41.572;24.730;2022-12-07T12:51:56;91065.00;;;9.90;91.18
59274;BME280;45044;41.572;24.730;2022-12-07T12:54:29;91069.13;;;9.98;93.35
59274;BME280;45044;41.572;24.730;2022-12-07T12:57:15;91066.84;;;10.33;87.62
59274;BME280;45044;41.572;24.730;2022-12-07T13:02:28;91047.69;;;10.62;75.91
59274;BME280;45044;41.572;24.730;2022-12-07T13:05:01;91067.56;;;10.74;75.44
59274;BME280;45044;41.572;24.730;2022-12-07T13:07:51;91081.00;;;10.98;77.01
59274;BME280;45044;41.572;24.730;2022-12-07T13:15:48;91073.25;;;10.39;76.10
59274;BME280;45044;41.572;24.730;2022-12-07T13:20:58;91070.63;;;10.39;73.04
59274;BME280;45044;41.572;24.730;2022-12-07T13:31:41;91068.75;;;10.14;80.28
59274;BME280;45044;41.572;24.730;2022-12-07T13:34:31;91069.13;;;9.94;89.51
59274;BME280;45044;41.572;24.730;2022-12-07T13:39:47;91061.63;;;9.97;84.22
59274;BME280;45044;41.572;24.730;2022-12-07T13:42:31;91060.13;;;9.81;88.99
59274;BME280;45044;41.572;24.730;2022-12-07T13:47:54;91068.69;;;9.67;95.75
59274;BME280;45044;41.572;24.730;2022-12-07T13:50:26;91066.81;;;9.53;100.00
59274;BME280;45044;41.572;24.730;2022-12-07T13:52:58;91073.50;;;9.21;100.00
59274;BME280;45044;41.572;24.730;2022-12-07T13:55:26;91070.41;;;9.01;100.00
59274;BME280;45044;41.572;24.730;2022-12-07T13:57:54;91079.38;;;8.92;100.00
59274;BME280;45044;41.572;24.730;2022-12-07T14:00:26;91074.06;;;8.78;100.00
59274;BME280;45044;41.572;24.730;2022-12-07T14:03:01;91082.22;;;8.65;100.00
59274;BME280;45044;41.572;24.730;2022-12-07T14:05:33;91084.47;;;8.63;100.00
59274;BME280;45044;41.572;24.730;2022-12-07T14:10:40;91089.22;;;8.46;100.00
59274;BME280;45044;41.572;24.730;2022-12-07T14:13:40;91096.28;;;8.42;100.00
59274;BME280;45044;41.572;24.730;2022-12-07T14:16:36;91094.00;;;8.37;100.00
59274;BME280;45044;41.572;24.730;2022-12-07T14:19:43;91094.69;;;8.26;100.00
59274;BME280;45044;41.572;24.730;2022-12-07T14:22:41;91086.44;;;8.24;100.00
59274;BME280;45044;41.572;24.730;2022-12-07T14:27:48;91092.00;;;8.15;100.00
59274;BME280;45044;41.572;24.730;2022-12-07T14:30:17;91085.91;;;8.04;100.00
59274;BME280;45044;41.572;24.730;2022-12-07T14:32:44;91086.59;;;7.94;100.00
59274;BME280;45044;41.572;24.730;2022-12-07T14:35:17;91098.09;;;7.85;100.00
59274;BME280;45044;41.572;24.730;2022-12-07T14:37:46;91096.56;;;7.81;100.00
59274;BME280;45044;41.572;24.730;2022-12-07T14:40:19;91096.03;;;7.64;100.00
59274;BME280;45044;41.572;24.730;2022-12-07T14:42:50;91097.19;;;7.66;100.00
59274;BME280;45044;41.572;24.730;2022-12-07T14:45:20;91088.25;;;7.71;100.00
59274;BME280;45044;41.572;24.730;2022-12-07T14:47:47;91093.34;;;7.57;100.00
59274;BME280;45044;41.572;24.730;2022-12-07T14:50:37;91094.88;;;7.58;100.00
59274;BME280;45044;41.572;24.730;2022-12-07T14:53:13;91091.84;;;7.55;100.00
59274;BME280;45044;41.572;24.730;2022-12-07T14:55:48;91083.56;;;7.50;100.00
59274;BME280;45044;41.572;24.730;2022-12-07T14:58:16;91095.91;;;7.49;100.00
59274;BME280;45044;41.572;24.730;2022-12-07T15:00:43;91098.88;;;7.48;100.00
59274;BME280;45044;41.572;24.730;2022-12-07T15:03:10;91096.69;;;7.53;100.00
59274;BME280;45044;41.572;24.730;2022-12-07T15:05:40;91106.34;;;7.49;100.00